Time;durP1;ratioP1;P1;durP2;ratioP2;P2;SDS_P1;SDS_P2;PMS_P1;PMS_P2;Temp;Humidity;BMP_temperature;BMP_pressure;BME280_temperature;BME280_humidity;BME280_pressure;Samples;Min_cycle;Max_cycle;Signal;HPM_P1;HPM_P2
2022/01/28 00:00:47;;;;;;;19.73;7.30;;;8.20;99.90;;;;;;5076212;28;20682;-88
2022/01/28 00:03:13;;;;;;;21.87;7.10;;;8.00;99.90;;;;;;5072205;28;20170;-88
2022/01/28 00:05:39;;;;;;;17.73;8.87;;;8.10;99.90;;;;;;5072412;28;20267;-88
2022/01/28 00:08:05;;;;;;;19.73;7.40;;;8.10;99.90;;;;;;5072326;28;20588;-88
2022/01/28 00:10:32;;;;;;;24.27;7.87;;;8.00;99.90;;;;;;5072289;28;20172;-87
2022/01/28 14:46:45;;;;;;;64.50;25.07;;;8.00;99.90;;;;;;4618123;23;20517;31
2022/01/28 14:49:12;;;;;;;59.80;25.37;;;8.00;99.90;;;;;;4935916;29;20192;-84
2022/01/28 14:51:39;;;;;;;53.27;25.50;;;7.90;99.90;;;;;;4937396;29;20213;-84
2022/01/28 19:30:12;;;;;;;53.40;26.90;;;6.90;99.90;;;;;;5276062;23;20245;-85
2022/01/28 19:32:40;;;;;;;52.27;26.23;;;6.90;99.90;;;;;;4955190;28;20566;-89
2022/01/28 19:35:09;;;;;;;50.33;25.57;;;6.90;99.90;;;;;;4955418;28;20211;-86
2022/01/28 19:37:46;;;;;;;48.87;26.20;;;7.00;99.90;;;;;;4940371;28;20167;-87
2022/01/28 19:40:18;;;;;;;55.03;30.33;;;6.90;99.90;;;;;;4954943;29;20175;-89
2022/01/28 19:42:45;;;;;;;57.93;29.13;;;6.90;99.90;;;;;;4955861;28;20203;-89
2022/01/28 19:45:17;;;;;;;57.10;27.70;;;6.80;99.90;;;;;;4954690;29;20644;-88
2022/01/28 19:47:49;;;;;;;62.73;31.10;;;7.00;99.90;;;;;;4955979;28;20684;-89
2022/01/28 19:50:25;;;;;;;58.97;30.00;;;7.00;99.90;;;;;;4956322;28;20228;-89
2022/01/28 19:52:51;;;;;;;59.37;28.50;;;7.00;99.90;;;;;;4955108;29;20163;-89
2022/01/28 19:55:18;;;;;;;74.47;34.83;;;6.90;99.90;;;;;;4953329;28;20190;-84
2022/01/28 19:57:50;;;;;;;61.17;27.60;;;6.90;99.90;;;;;;4951914;29;20635;-87
2022/01/28 20:00:18;;;;;;;62.37;28.03;;;7.00;99.90;;;;;;4953584;28;20182;-88
2022/01/28 20:02:45;;;;;;;71.97;31.50;;;7.00;99.90;;;;;;4953221;28;20560;-87
2022/01/28 20:05:12;;;;;;;66.87;29.73;;;7.00;99.90;;;;;;4953100;28;20677;-84
2022/01/28 20:07:38;;;;;;;71.63;34.57;;;7.00;99.90;;;;;;4953384;28;20171;-87
2022/01/28 20:10:04;;;;;;;63.40;30.07;;;7.00;99.90;;;;;;4953794;29;20230;-84
2022/01/28 20:12:31;;;;;;;70.00;30.37;;;7.00;99.90;;;;;;4954459;28;20180;-87
2022/01/28 20:14:57;;;;;;;65.60;33.63;;;7.00;99.90;;;;;;4953942;28;20259;-84
2022/01/28 20:17:23;;;;;;;65.67;29.07;;;7.00;99.90;;;;;;4954096;29;20275;-88
2022/01/28 20:19:49;;;;;;;59.47;28.07;;;7.00;99.90;;;;;;4953834;29;20218;-87
2022/01/28 20:22:16;;;;;;;67.70;27.50;;;7.00;99.90;;;;;;4954404;29;20258;-87
2022/01/28 20:24:43;;;;;;;61.93;28.30;;;7.10;99.90;;;;;;4954031;28;20167;-87
2022/01/28 20:27:09;;;;;;;63.77;27.87;;;7.20;99.90;;;;;;4953636;29;20246;-87
2022/01/28 20:29:34;;;;;;;63.63;28.63;;;7.30;99.90;;;;;;4953114;28;20188;-89
2022/01/28 20:32:00;;;;;;;66.83;28.80;;;7.40;99.90;;;;;;4954665;28;20252;-86
2022/01/28 20:34:26;;;;;;;54.83;25.83;;;7.30;99.90;;;;;;4953335;29;20183;-88
2022/01/28 20:36:53;;;;;;;56.40;25.90;;;7.20;99.90;;;;;;4952783;28;20197;-87
2022/01/28 20:39:19;;;;;;;59.27;27.20;;;7.10;99.90;;;;;;4954799;28;20610;-87
2022/01/28 20:41:49;;;;;;;59.43;28.03;;;7.20;99.90;;;;;;4954523;28;20764;-87
2022/01/28 20:44:17;;;;;;;61.80;27.10;;;7.30;99.90;;;;;;4954361;28;20247;-88
2022/01/28 20:46:45;;;;;;;65.23;28.13;;;7.30;99.90;;;;;;4953690;28;20171;-88
2022/01/28 20:49:14;;;;;;;62.80;26.87;;;7.20;99.90;;;;;;4954612;28;20198;-87
2022/01/28 20:51:42;;;;;;;64.70;28.90;;;7.20;99.90;;;;;;4953337;28;20625;-88
2022/01/28 20:54:08;;;;;;;66.10;28.77;;;7.30;99.90;;;;;;4952782;28;20576;-87
2022/01/28 20:56:33;;;;;;;66.33;28.50;;;7.20;99.90;;;;;;4952235;28;20172;-84
2022/01/28 20:59:00;;;;;;;59.83;27.80;;;7.20;99.90;;;;;;4959714;28;20229;-86
2022/01/28 21:01:27;;;;;;;62.90;27.03;;;7.40;99.90;;;;;;4954628;28;20226;-86
2022/01/28 21:03:52;;;;;;;59.53;28.20;;;7.40;99.90;;;;;;4955654;28;20258;-86
2022/01/28 21:06:23;;;;;;;61.67;27.53;;;7.40;99.90;;;;;;4956145;28;20179;-86
2022/01/28 21:08:49;;;;;;;61.23;27.70;;;7.30;99.90;;;;;;4955432;28;20175;-86
2022/01/28 21:11:26;;;;;;;63.37;26.93;;;7.30;99.90;;;;;;4953695;29;20263;-86
2022/01/28 21:13:52;;;;;;;72.80;28.93;;;7.30;99.90;;;;;;4953757;29;20188;-87
2022/01/28 21:16:18;;;;;;;70.23;28.53;;;7.30;99.90;;;;;;4954100;29;20179;-86
2022/01/28 21:18:48;;;;;;;66.40;29.67;;;7.20;99.90;;;;;;4950578;28;20176;-87
2022/01/28 21:21:15;;;;;;;61.97;29.80;;;7.20;99.90;;;;;;4954165;28;20260;-87
2022/01/28 21:23:41;;;;;;;72.47;27.90;;;7.20;99.90;;;;;;4953543;28;20179;-87
2022/01/28 21:26:12;;;;;;;63.20;27.53;;;7.20;99.90;;;;;;4957031;29;20759;-87
2022/01/28 21:28:38;;;;;;;59.63;28.10;;;7.30;99.90;;;;;;4956991;28;20659;-87
2022/01/28 21:31:04;;;;;;;66.27;28.20;;;7.40;99.90;;;;;;4956935;28;20193;-87
2022/01/28 21:33:32;;;;;;;65.93;27.90;;;7.40;99.90;;;;;;4958206;28;20274;-87
2022/01/28 21:36:01;;;;;;;62.83;29.43;;;7.40;99.90;;;;;;4956774;29;20180;-86
2022/01/28 21:38:29;;;;;;;61.50;28.83;;;7.40;99.90;;;;;;4958167;28;20710;-87
2022/01/28 21:40:56;;;;;;;62.27;29.17;;;7.50;99.90;;;;;;4956252;29;20184;-87
2022/01/28 21:43:25;;;;;;;61.30;29.13;;;7.50;99.90;;;;;;4957762;28;20185;-87
2022/01/28 21:45:50;;;;;;;53.80;26.97;;;7.60;99.90;;;;;;4956547;29;20177;-87
2022/01/28 21:48:16;;;;;;;62.40;29.03;;;7.50;99.90;;;;;;4957196;28;20183;-87
2022/01/28 21:50:44;;;;;;;63.10;29.07;;;7.30;99.90;;;;;;4965171;28;20176;-88
2022/01/28 21:53:11;;;;;;;58.57;28.47;;;7.30;99.90;;;;;;4965858;28;20649;-86
2022/01/28 21:55:36;;;;;;;59.23;27.83;;;7.20;99.90;;;;;;4973437;28;20167;-87
2022/01/28 21:58:03;;;;;;;57.50;29.27;;;7.20;99.90;;;;;;4960421;28;20662;-86
2022/01/28 22:00:28;;;;;;;59.10;27.77;;;7.40;99.90;;;;;;4955092;29;20183;-88
2022/01/28 22:02:54;;;;;;;58.60;27.53;;;7.40;99.90;;;;;;4957048;28;20590;-87
2022/01/28 22:05:20;;;;;;;55.17;28.17;;;7.60;99.90;;;;;;4955391;29;20177;-86
2022/01/28 22:07:45;;;;;;;66.37;30.30;;;7.50;99.90;;;;;;4955517;29;20213;-87
2022/01/28 22:10:12;;;;;;;55.10;28.90;;;7.50;99.90;;;;;;4954996;28;20180;-87
2022/01/28 22:12:38;;;;;;;53.27;26.07;;;7.30;99.90;;;;;;4956748;28;20246;-87
2022/01/28 22:15:07;;;;;;;54.83;26.33;;;7.30;99.90;;;;;;4955870;29;20590;-88
2022/01/28 22:17:35;;;;;;;57.40;28.83;;;7.40;99.90;;;;;;4957551;29;20179;-88
2022/01/28 22:20:01;;;;;;;51.67;26.57;;;7.40;99.90;;;;;;4956279;29;20588;-88
2022/01/28 22:22:27;;;;;;;52.47;26.67;;;7.40;99.90;;;;;;4955655;28;20242;-91
2022/01/28 22:24:53;;;;;;;58.67;28.70;;;7.50;99.90;;;;;;4955802;29;20199;-90
2022/01/28 22:27:18;;;;;;;56.60;26.80;;;7.30;99.90;;;;;;4956245;28;20641;-90
2022/01/28 22:29:44;;;;;;;60.47;27.90;;;7.30;99.90;;;;;;4955212;28;20191;-90
2022/01/28 22:32:09;;;;;;;56.97;26.03;;;7.40;99.90;;;;;;4955466;28;20192;-89
2022/01/28 22:34:35;;;;;;;60.13;29.17;;;7.40;99.90;;;;;;4956959;28;20545;-89
2022/01/28 22:37:01;;;;;;;62.30;33.60;;;7.40;99.90;;;;;;4956081;29;20180;-88
2022/01/28 22:39:27;;;;;;;61.83;30.07;;;7.40;99.90;;;;;;4956724;29;20320;-89
2022/01/28 22:41:53;;;;;;;53.80;28.53;;;7.30;99.90;;;;;;4966287;29;20230;-88
2022/01/28 22:44:19;;;;;;;67.13;33.37;;;7.30;99.90;;;;;;4962140;28;20163;-89
2022/01/28 22:46:45;;;;;;;55.07;28.87;;;7.20;99.90;;;;;;4956205;29;20204;-90
2022/01/28 22:49:10;;;;;;;56.87;28.40;;;7.20;99.90;;;;;;4956286;29;20206;-89
2022/01/28 22:51:37;;;;;;;50.27;25.80;;;7.20;99.90;;;;;;4955600;28;20206;-90
2022/01/28 22:54:03;;;;;;;54.23;26.80;;;7.10;99.90;;;;;;4956483;28;20183;-89
2022/01/28 22:56:29;;;;;;;60.10;30.57;;;7.10;99.90;;;;;;4957457;29;20196;-90
2022/01/28 22:58:59;;;;;;;56.20;31.27;;;7.00;99.90;;;;;;4960882;29;20684;-89
2022/01/28 23:01:27;;;;;;;55.20;27.27;;;7.00;99.90;;;;;;4961350;29;20203;-91
2022/01/28 23:03:53;;;;;;;51.40;27.13;;;6.90;99.90;;;;;;4959871;29;20208;-88
2022/01/28 23:06:21;;;;;;;57.13;29.63;;;7.10;99.90;;;;;;4959486;29;20183;-90
2022/01/28 23:08:48;;;;;;;116.30;58.77;;;7.00;99.90;;;;;;4956449;28;20169;-90
2022/01/28 23:11:13;;;;;;;47.83;26.70;;;7.00;99.90;;;;;;4955717;29;20234;-91
